Time;durP1;ratioP1;P1;durP2;ratioP2;P2;SDS_P1;SDS_P2;PMS_P1;PMS_P2;Temp;Humidity;BMP_temperature;BMP_pressure;BME280_temperature;BME280_humidity;BME280_pressure;Samples;Min_cycle;Max_cycle;Signal;HPM_P1;HPM_P2
2023/06/15 00:00:56;;;;;;;7.00;2.40;;;;;;;23.80;64.24;98757.22;6245834;23;20176;-83
2023/06/15 00:03:22;;;;;;;5.30;2.30;;;;;;;23.80;63.99;98758.06;6219260;23;20248;-84
2023/06/15 00:05:49;;;;;;;6.23;2.47;;;;;;;23.78;64.11;98761.91;6246085;23;20152;-83
2023/06/15 00:08:16;;;;;;;6.20;3.00;;;;;;;23.76;64.03;98754.06;6219586;23;20486;-83
2023/06/15 00:10:43;;;;;;;3.90;2.40;;;;;;;23.80;63.86;98755.38;6245941;23;20179;-83
2023/06/15 00:13:09;;;;;;;6.23;2.73;;;;;;;23.80;64.11;98759.91;6246098;23;20153;-83
2023/06/15 00:15:39;;;;;;;5.33;2.80;;;;;;;23.76;63.91;98756.75;6246599;23;20595;-83
2023/06/15 00:18:06;;;;;;;4.47;2.63;;;;;;;23.73;64.17;98757.09;6219277;23;20172;-83
2023/06/15 00:20:33;;;;;;;7.47;2.67;;;;;;;23.64;64.69;98755.44;6245965;23;20149;-83
2023/06/15 00:23:00;;;;;;;5.13;2.73;;;;;;;23.67;64.38;98762.28;6219365;23;20624;-84
2023/06/15 00:25:26;;;;;;;4.23;2.87;;;;;;;23.61;64.83;98754.97;6245749;23;20193;-83
2023/06/15 00:27:53;;;;;;;4.10;2.73;;;;;;;23.57;64.38;98757.13;6245905;23;20212;-83
2023/06/15 00:30:20;;;;;;;5.20;2.77;;;;;;;23.50;64.43;98753.50;6245752;23;20196;-83
2023/06/15 00:32:45;;;;;;;7.07;3.33;;;;;;;23.44;64.40;98754.16;6245643;23;20156;-83
2023/06/15 00:35:12;;;;;;;5.93;2.63;;;;;;;23.43;64.56;98746.28;6245932;23;20239;-83
2023/06/15 00:37:39;;;;;;;6.00;3.00;;;;;;;23.44;64.22;98753.31;6246405;23;20145;-84
2023/06/15 00:40:06;;;;;;;8.23;4.07;;;;;;;23.44;64.45;98754.16;6246528;23;20228;-83
2023/06/15 00:42:33;;;;;;;5.20;3.13;;;;;;;23.43;64.55;98757.84;6245877;23;20620;-83
2023/06/15 00:45:00;;;;;;;4.97;2.93;;;;;;;23.38;64.09;98752.16;6246251;23;20232;-83
2023/06/15 00:47:26;;;;;;;6.67;3.00;;;;;;;23.33;64.42;98759.84;6219151;23;20153;-83
2023/06/15 00:49:53;;;;;;;4.70;2.80;;;;;;;23.19;65.40;98758.69;6245768;23;20203;-83
2023/06/15 00:52:21;;;;;;;5.87;3.37;;;;;;;23.19;65.28;98771.25;6245608;23;20240;-83
2023/06/15 00:54:49;;;;;;;4.70;2.60;;;;;;;23.21;65.03;98755.84;6220898;23;20161;-83
2023/06/15 00:57:18;;;;;;;7.80;3.03;;;;;;;23.26;64.80;98758.84;6247859;23;20228;-83
2023/06/15 00:59:45;;;;;;;10.80;3.00;;;;;;;23.28;64.35;98762.19;6247825;23;20141;-83
2023/06/15 01:02:12;;;;;;;5.40;2.57;;;;;;;23.24;64.50;98763.53;6248080;23;20165;-83
2023/06/15 01:04:39;;;;;;;5.30;2.03;;;;;;;23.18;64.36;98765.06;6247542;23;20156;-83
2023/06/15 01:07:10;;;;;;;10.47;3.00;;;;;;;23.06;65.38;98766.38;6247540;23;20145;-83
2023/06/15 01:09:41;;;;;;;7.77;3.00;;;;;;;22.97;65.21;98770.09;6247533;23;20210;-83
2023/06/15 01:12:14;;;;;;;5.60;2.60;;;;;;;22.98;65.18;98762.91;6248315;23;20137;-83
2023/06/15 01:14:41;;;;;;;8.57;2.77;;;;;;;22.95;65.83;98764.06;6221166;23;20151;-83
2023/06/15 01:17:15;;;;;;;5.80;2.87;;;;;;;23.00;65.58;98750.19;6221041;23;20506;-83
2023/06/15 01:20:08;;;;;;;4.50;2.73;;;;;;;22.96;65.40;98754.19;6247715;23;20133;-83
2023/06/15 01:22:55;;;;;;;6.53;2.60;;;;;;;22.91;65.30;98752.03;6247995;23;20175;-83
2023/06/15 01:25:53;;;;;;;5.20;2.60;;;;;;;22.87;65.33;98760.56;6247567;23;20651;-83
2023/06/15 01:28:21;;;;;;;5.53;2.90;;;;;;;22.80;65.81;98752.34;6247674;23;20550;-83
2023/06/15 01:30:50;;;;;;;6.27;2.90;;;;;;;22.78;65.89;98753.53;6220948;23;20177;-83
2023/06/15 01:33:17;;;;;;;4.23;2.50;;;;;;;22.77;66.04;98744.69;6247317;23;20149;-83
2023/06/15 01:35:44;;;;;;;5.53;2.57;;;;;;;22.75;66.15;98756.53;6247928;23;20145;-83
2023/06/15 01:38:11;;;;;;;7.20;2.43;;;;;;;22.73;66.10;98747.84;6220761;23;20673;-83
2023/06/15 01:40:43;;;;;;;5.60;2.87;;;;;;;22.73;66.19;98747.84;6247489;23;20611;-83
2023/06/15 01:43:12;;;;;;;5.90;2.83;;;;;;;22.74;66.42;98749.53;6247685;23;20137;-83
2023/06/15 01:45:41;;;;;;;7.07;3.60;;;;;;;22.78;65.94;98745.50;6220963;23;20180;-83
2023/06/15 01:48:08;;;;;;;7.73;3.30;;;;;;;22.76;65.75;98743.03;6221048;23;20191;-83
2023/06/15 01:50:36;;;;;;;7.83;3.47;;;;;;;22.76;65.45;98743.03;6220661;23;20188;-83
2023/06/15 01:53:02;;;;;;;5.50;3.03;;;;;;;22.71;65.52;98749.88;6220855;23;20153;-83
2023/06/15 01:55:30;;;;;;;8.27;3.43;;;;;;;22.64;65.78;98745.16;6247250;23;20176;-83
2023/06/15 01:57:56;;;;;;;7.40;2.53;;;;;;;22.58;66.14;98753.00;6246314;23;20145;-83
2023/06/15 02:00:24;;;;;;;5.53;3.30;;;;;;;22.68;65.68;98747.53;6247268;23;20228;-83
2023/06/15 02:02:51;;;;;;;5.10;3.03;;;;;;;22.64;66.29;98744.38;6220700;23;20152;-83
2023/06/15 02:05:18;;;;;;;7.97;2.60;;;;;;;22.55;66.71;98745.31;6247022;23;20159;-83
2023/06/15 02:07:45;;;;;;;10.73;3.07;;;;;;;22.56;66.58;98739.78;6247174;23;20482;-83
2023/06/15 02:10:10;;;;;;;4.77;2.83;;;;;;;22.58;66.62;98751.16;6247192;23;20177;-83
2023/06/15 02:12:37;;;;;;;4.60;2.70;;;;;;;22.54;66.42;98749.81;6247264;23;20458;-83
2023/06/15 02:15:04;;;;;;;4.83;2.63;;;;;;;22.49;66.77;98752.16;6246964;23;20599;-82
2023/06/15 02:17:38;;;;;;;9.47;2.90;;;;;;;22.45;67.15;98750.81;6246958;23;20178;-82
2023/06/15 02:20:09;;;;;;;6.10;3.37;;;;;;;22.48;67.39;98746.97;6247419;23;20140;-83
2023/06/15 02:22:36;;;;;;;5.87;2.77;;;;;;;22.36;67.84;98745.59;6246986;23;20561;-82
2023/06/15 02:25:04;;;;;;;4.97;2.50;;;;;;;22.29;68.10;98740.09;6246648;23;20261;-82
2023/06/15 02:27:30;;;;;;;6.83;2.93;;;;;;;22.31;67.86;98740.78;6247065;23;20145;-83
2023/06/15 02:29:57;;;;;;;10.50;3.20;;;;;;;22.27;68.17;98739.44;6246855;23;20165;-83
2023/06/15 02:32:37;;;;;;;5.63;3.00;;;;;;;22.30;68.26;98741.75;6246456;23;20153;-83
2023/06/15 02:35:13;;;;;;;8.00;2.97;;;;;;;22.31;67.79;98737.25;6220351;23;20152;-83
2023/06/15 02:37:41;;;;;;;5.57;2.67;;;;;;;22.30;67.64;98752.44;6246729;23;20177;-82
2023/06/15 02:40:11;;;;;;;4.13;2.77;;;;;;;22.26;68.11;98753.78;6246854;23;20148;-83
2023/06/15 02:42:38;;;;;;;6.73;2.80;;;;;;;22.26;68.09;98745.78;6247243;23;20133;-83
2023/06/15 02:45:06;;;;;;;8.77;2.87;;;;;;;22.22;68.59;98748.94;6246528;23;20149;-83
2023/06/15 02:47:34;;;;;;;5.80;2.70;;;;;;;22.21;68.18;98748.09;6246716;23;20155;-83
2023/06/15 02:50:01;;;;;;;5.57;2.80;;;;;;;22.27;67.98;98746.59;6247043;23;20248;-83
2023/06/15 02:52:32;;;;;;;6.70;3.00;;;;;;;22.29;67.79;98742.78;6246913;23;20188;-83
2023/06/15 02:54:59;;;;;;;7.73;2.87;;;;;;;22.29;67.66;98740.09;6220228;23;20152;-83
2023/06/15 02:57:26;;;;;;;7.33;2.90;;;;;;;22.30;67.54;98741.75;6219386;23;20249;-83
2023/06/15 02:59:53;;;;;;;4.40;2.63;;;;;;;22.28;67.52;98742.91;6246731;23;20145;-83
2023/06/15 03:02:20;;;;;;;7.07;2.67;;;;;;;22.27;67.59;98736.78;6246585;23;20237;-82
2023/06/15 03:04:50;;;;;;;5.07;2.93;;;;;;;22.26;67.82;98745.78;6246568;23;20149;-83
2023/06/15 03:07:20;;;;;;;4.83;2.73;;;;;;;22.22;68.03;98747.06;6246296;23;20149;-82
2023/06/15 03:09:47;;;;;;;6.27;3.00;;;;;;;22.20;67.99;98743.75;6220077;23;20169;-83
2023/06/15 03:12:14;;;;;;;5.10;2.77;;;;;;;22.19;68.61;98749.25;6245995;23;20520;-82
2023/06/15 03:14:44;;;;;;;4.93;2.37;;;;;;;22.19;68.62;98750.09;6246955;23;20145;-83
2023/06/15 03:17:12;;;;;;;6.70;2.80;;;;;;;22.19;68.45;98749.25;6246167;23;20145;-83
2023/06/15 03:19:40;;;;;;;5.70;3.20;;;;;;;22.16;68.93;98755.75;6220175;23;20145;-83
2023/06/15 03:22:10;;;;;;;6.73;3.10;;;;;;;22.12;69.63;98750.91;6246571;23;20207;-83
2023/06/15 03:24:36;;;;;;;4.73;3.00;;;;;;;22.04;69.61;98757.03;6245964;23;20609;-83
2023/06/15 03:27:06;;;;;;;11.70;3.67;;;;;;;22.01;69.77;98752.06;6246851;23;20554;-83
2023/06/15 03:29:36;;;;;;;7.57;3.57;;;;;;;21.95;69.63;98752.69;6246670;23;20188;-83
2023/06/15 03:32:07;;;;;;;11.70;4.27;;;;;;;21.91;69.83;98754.84;6245850;23;20208;-83
2023/06/15 03:34:35;;;;;;;9.33;3.87;;;;;;;21.91;69.68;98756.66;6246037;23;20188;-83
2023/06/15 03:37:02;;;;;;;8.97;4.20;;;;;;;21.87;69.60;98749.97;6246448;23;20251;-83
2023/06/15 03:39:28;;;;;;;13.43;3.93;;;;;;;21.89;69.60;98748.81;6246369;23;20161;-83
2023/06/15 03:41:55;;;;;;;9.00;4.23;;;;;;;21.89;69.29;98743.50;6219791;23;20153;-83
2023/06/15 03:44:21;;;;;;;8.07;3.63;;;;;;;21.92;69.72;98758.34;6246274;23;20145;-83
2023/06/15 03:46:48;;;;;;;10.67;4.53;;;;;;;21.96;69.46;98744.50;6219581;23;20480;-83
2023/06/15 03:49:15;;;;;;;7.97;4.03;;;;;;;22.00;69.23;98747.69;6246160;23;20145;-83
2023/06/15 03:51:42;;;;;;;6.43;3.80;;;;;;;22.06;69.19;98744.38;6245442;23;20172;-82
2023/06/15 03:54:08;;;;;;;10.63;3.93;;;;;;;22.11;69.06;98750.06;6245799;23;20168;-83
2023/06/15 03:56:36;;;;;;;7.30;3.70;;;;;;;22.14;69.74;98748.91;6245691;23;20163;-82
2023/06/15 03:59:02;;;;;;;12.90;4.03;;;;;;;22.22;69.57;98749.75;6245724;23;20636;-83
2023/06/15 04:01:29;;;;;;;6.00;3.70;;;;;;;22.28;69.69;98742.91;6245871;23;20172;-83
2023/06/15 04:03:55;;;;;;;6.13;3.53;;;;;;;22.33;69.89;98744.09;6246310;23;20556;-83
2023/06/15 04:06:23;;;;;;;10.07;3.57;;;;;;;22.33;70.27;98751.28;6245882;23;20152;-83
2023/06/15 04:08:50;;;;;;;10.37;4.33;;;;;;;22.33;71.11;98751.28;6246280;23;20145;-83
2023/06/15 04:11:17;;;;;;;8.03;3.43;;;;;;;22.36;70.80;98761.63;6245537;23;20215;-83
2023/06/15 04:13:44;;;;;;;6.43;3.73;;;;;;;22.34;71.33;98758.28;6245728;23;20572;-83
2023/06/15 04:16:11;;;;;;;7.20;3.43;;;;;;;22.38;71.21;98757.00;6245979;23;20149;-83
2023/06/15 04:18:38;;;;;;;7.83;3.67;;;;;;;22.41;70.95;98762.81;6246311;23;20215;-83
2023/06/15 04:21:05;;;;;;;9.67;3.80;;;;;;;22.46;70.75;98763.16;6245686;23;20141;-83
2023/06/15 04:23:32;;;;;;;8.90;4.00;;;;;;;22.50;70.63;98766.34;6246053;23;20153;-83
2023/06/15 04:26:00;;;;;;;9.30;4.67;;;;;;;22.56;70.85;98758.50;6218715;23;20197;-83
2023/06/15 04:28:27;;;;;;;8.20;4.43;;;;;;;22.66;71.46;98762.88;6245489;23;20171;-83
2023/06/15 04:31:07;;;;;;;12.33;4.50;;;;;;;22.82;70.96;98760.22;6245242;23;20231;-83
2023/06/15 04:33:36;;;;;;;8.20;4.60;;;;;;;22.92;70.86;98758.22;6219996;23;20183;-83
2023/06/15 04:36:03;;;;;;;8.83;3.13;;;;;;;22.90;70.29;98760.22;6219226;23;20164;-83
2023/06/15 04:38:29;;;;;;;8.80;3.57;;;;;;;22.91;69.74;98756.53;6246560;23;20149;-83
2023/06/15 04:40:56;;;;;;;5.20;3.00;;;;;;;23.02;70.06;98758.88;6245843;23;20149;-83
2023/06/15 04:43:22;;;;;;;7.57;3.73;;;;;;;23.17;70.44;98762.53;6246181;23;20149;-83
2023/06/15 04:45:49;;;;;;;10.00;3.13;;;;;;;23.31;70.11;98758.34;6245454;23;20211;-83
2023/06/15 04:48:17;;;;;;;7.63;3.67;;;;;;;23.24;69.42;98763.53;6245807;23;20203;-84
2023/06/15 04:50:48;;;;;;;10.20;4.07;;;;;;;23.26;69.24;98772.22;6245850;23;20168;-84
2023/06/15 04:53:16;;;;;;;7.23;3.53;;;;;;;23.31;69.16;98759.19;6244485;23;20778;-83
2023/06/15 04:55:41;;;;;;;6.80;3.77;;;;;;;23.50;68.98;98764.19;6245531;23;20211;-84
2023/06/15 04:58:07;;;;;;;9.53;3.40;;;;;;;23.61;69.44;98768.34;6244799;23;20157;-84
2023/06/15 05:00:34;;;;;;;5.90;3.57;;;;;;;23.73;68.60;98758.94;6245838;23;20268;-84
2023/06/15 05:03:00;;;;;;;8.90;3.80;;;;;;;23.91;68.92;98769.38;6245123;23;20145;-83
2023/06/15 05:05:25;;;;;;;7.80;4.10;;;;;;;23.96;68.57;98767.88;6243600;23;20255;-85
2023/06/15 05:07:50;;;;;;;7.30;3.93;;;;;;;23.96;67.76;98775.91;6218100;23;20160;-85
2023/06/15 05:10:16;;;;;;;7.03;3.57;;;;;;;24.12;68.13;98769.66;6244581;23;20613;-85
2023/06/15 05:12:41;;;;;;;15.60;4.50;;;;;;;24.40;67.58;98778.88;6218217;23;20221;-84
2023/06/15 05:15:07;;;;;;;8.97;4.57;;;;;;;24.61;67.30;98783.59;6218519;23;20165;-84
2023/06/15 05:17:32;;;;;;;9.53;4.27;;;;;;;24.82;67.82;98773.94;6243202;23;20226;-84
2023/06/15 05:19:58;;;;;;;6.57;4.20;;;;;;;25.04;66.12;98783.81;6244797;23;20229;-83
2023/06/15 05:22:23;;;;;;;5.30;3.67;;;;;;;25.26;64.80;98771.34;6245038;23;20565;-84
2023/06/15 05:24:49;;;;;;;8.57;3.80;;;;;;;25.44;63.83;98787.13;6217563;23;20149;-84
2023/06/15 05:27:14;;;;;;;7.73;4.83;;;;;;;25.57;63.92;98785.53;6245332;23;20557;-84
2023/06/15 05:29:39;;;;;;;7.23;4.47;;;;;;;25.60;62.56;98789.69;6244962;23;20197;-84
2023/06/15 05:32:05;;;;;;;8.43;4.23;;;;;;;25.73;62.24;98792.56;6244840;23;20220;-85
2023/06/15 05:34:32;;;;;;;5.87;3.93;;;;;;;25.80;61.88;98790.78;6245087;23;20240;-85
2023/06/15 05:36:57;;;;;;;8.80;4.40;;;;;;;25.89;61.79;98796.91;6245393;23;20149;-84
2023/06/15 05:39:25;;;;;;;6.38;3.75;;;;;;;25.93;63.17;98793.66;6245621;23;20210;-84
2023/06/15 05:41:50;;;;;;;7.03;4.50;;;;;;;26.03;62.10;98788.84;6220122;23;20168;-84
2023/06/15 05:44:16;;;;;;;7.87;4.30;;;;;;;26.03;60.68;98796.91;6247020;23;20149;-84
2023/06/15 05:46:42;;;;;;;6.53;4.30;;;;;;;26.07;60.92;98792.00;6245469;23;20153;-84
2023/06/15 05:49:08;;;;;;;6.38;4.05;;;;;;;26.11;62.34;98796.78;6220038;23;20252;-84
2023/06/15 05:51:39;;;;;;;8.25;4.68;;;;;;;26.20;60.66;98802.94;6219845;23;20161;-86
2023/06/15 05:54:04;;;;;;;5.45;3.78;;;;;;;26.21;59.84;98800.06;6219049;23;20145;-85
2023/06/15 05:56:31;;;;;;;6.85;4.15;;;;;;;26.29;61.42;98800.94;6246377;23;20145;-85
2023/06/15 05:58:58;;;;;;;7.50;3.97;;;;;;;26.39;60.88;98801.50;6246059;23;20527;-86
2023/06/15 06:01:23;;;;;;;8.23;4.13;;;;;;;26.52;60.92;98805.16;6219886;23;20153;-86
2023/06/15 06:03:48;;;;;;;7.28;3.88;;;;;;;26.68;60.74;98806.78;6244568;23;20219;-86
2023/06/15 06:06:14;;;;;;;10.07;3.75;;;;;;;26.72;60.84;98803.53;6216709;23;20240;-85
2023/06/15 06:08:39;;;;;;;6.03;3.25;;;;;;;26.70;58.00;98807.44;6219533;23;20264;-86
2023/06/15 06:11:13;;;;;;;8.68;3.75;;;;;;;26.64;58.22;98805.50;6246172;23;20533;-86
2023/06/15 06:13:46;;;;;;;6.07;3.45;;;;;;;26.83;58.35;98799.53;6245850;23;20581;-87
2023/06/15 06:16:17;;;;;;;11.63;4.10;;;;;;;27.01;58.35;98807.16;6220118;23;20153;-85
2023/06/15 06:18:46;;;;;;;6.10;4.13;;;;;;;27.09;57.90;98799.78;6246505;23;20130;-86
2023/06/15 06:21:11;;;;;;;6.63;4.15;;;;;;;27.06;59.09;98800.19;6218730;23;20161;-86
2023/06/15 06:23:46;;;;;;;8.82;4.07;;;;;;;27.39;58.48;98800.44;6246303;23;20207;-86
2023/06/15 06:26:12;;;;;;;6.85;3.90;;;;;;;27.58;57.65;98790.88;6219169;23;20210;-86
2023/06/15 06:28:39;;;;;;;7.47;4.50;;;;;;;27.82;57.54;98791.25;6245367;23;20240;-88
2023/06/15 06:31:05;;;;;;;7.68;4.07;;;;;;;27.89;56.35;98792.09;6219239;23;20185;-89
2023/06/15 06:33:32;;;;;;;5.95;3.70;;;;;;;28.01;56.89;98793.22;6219677;23;20640;-88
2023/06/15 06:36:00;;;;;;;6.35;3.47;;;;;;;28.16;56.01;98790.41;6218604;23;20157;-88
2023/06/15 06:38:38;;;;;;;6.78;3.72;;;;;;;28.36;57.00;98788.63;6219693;23;20160;-91
2023/06/15 06:41:04;;;;;;;6.40;4.13;;;;;;;28.55;54.79;98789.72;6246026;23;20144;-88
2023/06/15 06:43:30;;;;;;;7.07;4.00;;;;;;;28.72;54.28;98787.50;6245458;23;20160;-88
2023/06/15 06:45:55;;;;;;;5.82;3.55;;;;;;;28.90;55.29;98785.88;6245628;23;20191;-89
2023/06/15 06:48:25;;;;;;;11.15;3.50;;;;;;;29.17;52.57;98787.56;6219956;23;20157;-88
2023/06/15 06:50:50;;;;;;;6.18;3.55;;;;;;;29.34;52.54;98782.59;6245579;23;20169;-89
2023/06/15 06:53:19;;;;;;;7.07;3.08;;;;;;;29.34;52.19;98779.91;6245220;23;20177;-89
2023/06/15 06:55:50;;;;;;;6.65;3.53;;;;;;;29.48;49.24;98778.03;6216333;23;20157;-93
2023/06/15 06:58:20;;;;;;;5.13;2.80;;;;;;;29.70;50.95;98774.88;6245078;23;20157;-91
2023/06/15 07:00:46;;;;;;;5.57;2.92;;;;;;;29.89;49.55;98767.78;6217792;23;20549;-93
2023/06/15 07:03:12;;;;;;;4.45;2.78;;;;;;;29.92;50.46;98769.22;6218293;23;20675;-92
2023/06/15 07:05:38;;;;;;;5.68;2.88;;;;;;;30.20;49.15;98762.47;6219896;23;20244;-93
2023/06/15 07:08:05;;;;;;;5.03;2.38;;;;;;;30.32;48.83;98768.84;6218778;23;20153;-91
2023/06/15 07:10:31;;;;;;;4.60;2.20;;;;;;;30.41;47.85;98764.06;6219828;23;20181;-91
2023/06/15 07:12:58;;;;;;;8.77;2.70;;;;;;;30.55;49.18;98765.66;6219725;23;20596;-94
2023/06/15 07:15:27;;;;;;;4.10;2.42;;;;;;;30.45;44.87;98767.16;6219770;23;20183;-93
2023/06/15 07:17:53;;;;;;;3.42;2.10;;;;;;;30.36;45.98;98767.41;6246861;23;20149;-92
2023/06/15 07:20:20;;;;;;;4.70;2.45;;;;;;;30.42;47.15;98766.53;6219494;23;20568;-92
2023/06/15 07:22:47;;;;;;;4.45;2.47;;;;;;;30.55;46.78;98771.06;6246491;23;20169;-92
2023/06/15 07:25:14;;;;;;;3.60;2.10;;;;;;;30.52;44.79;98776.91;6246289;23;20527;-90
2023/06/15 07:27:44;;;;;;;3.67;2.10;;;;;;;30.61;46.83;98774.78;6218871;23;20148;-91
2023/06/15 07:30:10;;;;;;;3.30;1.80;;;;;;;30.88;44.65;98771.66;6244089;23;20188;-91
2023/06/15 07:32:40;;;;;;;5.43;2.20;;;;;;;31.10;45.17;98771.34;6218730;23;20153;-91
2023/06/15 07:35:07;;;;;;;5.18;1.90;;;;;;;31.28;42.82;98774.94;6243314;23;20129;-87
2023/06/15 07:37:33;;;;;;;3.90;1.67;;;;;;;31.47;42.41;98767.72;6244333;23;20172;-88
2023/06/15 07:40:00;;;;;;;6.10;1.88;;;;;;;31.66;41.78;98768.56;6244632;23;20145;-87
2023/06/15 07:42:27;;;;;;;2.97;1.30;;;;;;;31.83;41.77;98764.22;6244340;23;20149;-87
2023/06/15 07:44:57;;;;;;;3.88;1.90;;;;;;;31.88;42.55;98767.91;6245290;23;20667;-87
2023/06/15 07:47:24;;;;;;;2.78;1.63;;;;;;;31.93;41.02;98765.34;6245583;23;20156;-88
2023/06/15 07:49:51;;;;;;;3.92;1.60;;;;;;;32.03;40.00;98759.41;6244815;23;20497;-88
2023/06/15 07:52:16;;;;;;;4.60;2.05;;;;;;;32.19;40.11;98756.09;6245102;23;20145;-88
2023/06/15 07:54:43;;;;;;;2.53;1.45;;;;;;;32.14;41.27;98761.38;6245483;23;20159;-87
2023/06/15 07:57:08;;;;;;;2.92;1.88;;;;;;;31.89;40.05;98758.69;6245206;23;20171;-88
2023/06/15 07:59:38;;;;;;;3.50;1.80;;;;;;;31.89;43.00;98757.88;6245680;23;20535;-90
2023/06/15 08:02:03;;;;;;;5.38;1.80;;;;;;;32.15;43.66;98760.31;6244838;23;20155;-87
2023/06/15 08:04:29;;;;;;;3.00;1.67;;;;;;;32.41;41.43;98756.44;6244583;23;20149;-88
2023/06/15 08:06:54;;;;;;;2.05;1.20;;;;;;;32.21;39.67;98757.50;6245646;23;20175;-87
2023/06/15 08:09:22;;;;;;;2.22;1.48;;;;;;;32.38;40.75;98763.16;6219070;23;20528;-87
2023/06/15 08:11:49;;;;;;;3.20;1.52;;;;;;;32.40;42.02;98766.44;6219132;23;20489;-87
2023/06/15 08:14:14;;;;;;;3.65;1.92;;;;;;;32.11;40.48;98773.50;6245280;23;20149;-87
2023/06/15 08:16:40;;;;;;;3.38;1.63;;;;;;;32.20;41.40;98755.88;6245379;23;20155;-88
2023/06/15 08:19:06;;;;;;;5.78;1.75;;;;;;;32.46;40.38;98759.28;6245245;23;20224;-87
2023/06/15 08:21:32;;;;;;;4.75;1.75;;;;;;;32.44;41.12;98753.25;6245380;23;20163;-87
2023/06/15 08:23:58;;;;;;;3.15;1.38;;;;;;;32.31;40.80;98756.16;6245522;23;20148;-87
2023/06/15 08:26:23;;;;;;;3.67;1.77;;;;;;;32.06;39.43;98754.38;6218124;23;20256;-87
2023/06/15 08:28:49;;;;;;;3.05;1.77;;;;;;;32.13;40.97;98751.56;6245502;23;20149;-87
2023/06/15 08:31:15;;;;;;;2.65;1.65;;;;;;;32.11;40.54;98753.69;6218855;23;20242;-88
2023/06/15 08:33:40;;;;;;;4.63;1.70;;;;;;;32.36;40.39;98754.41;6245397;23;20545;-87
2023/06/15 08:36:06;;;;;;;3.50;1.45;;;;;;;32.63;42.22;98752.16;6245436;23;20160;-87
2023/06/15 08:38:31;;;;;;;3.90;1.50;;;;;;;32.55;39.61;98752.47;6245485;23;20238;-86
2023/06/15 08:40:57;;;;;;;4.50;1.80;;;;;;;32.68;40.34;98757.72;6245146;23;20155;-88
2023/06/15 08:43:23;;;;;;;4.18;1.73;;;;;;;32.73;40.79;98753.25;6245258;23;20145;-89
2023/06/15 08:45:53;;;;;;;3.72;2.08;;;;;;;32.66;38.99;98760.69;6245241;23;20582;-87
2023/06/15 08:48:21;;;;;;;3.35;1.63;;;;;;;32.73;39.73;98752.47;6244903;23;20138;-87
2023/06/15 08:50:49;;;;;;;5.55;2.40;;;;;;;32.52;39.69;98750.22;6245398;23;20234;-88
2023/06/15 08:53:16;;;;;;;2.60;1.65;;;;;;;32.57;40.28;98750.41;6245346;23;20224;-88
2023/06/15 08:55:42;;;;;;;3.75;1.80;;;;;;;32.58;41.52;98752.03;6245427;23;20620;-88
2023/06/15 08:58:08;;;;;;;3.33;1.48;;;;;;;32.29;39.38;98747.38;6245221;23;20149;-88
2023/06/15 09:00:35;;;;;;;3.38;1.30;;;;;;;32.32;37.54;98755.91;6218689;23;20145;-87
2023/06/15 09:03:10;;;;;;;4.47;1.58;;;;;;;32.34;39.30;98761.13;6245293;23;20145;-89
2023/06/15 09:05:44;;;;;;;2.08;1.10;;;;;;;32.29;38.67;98760.94;6244800;23;20592;-90
2023/06/15 09:08:10;;;;;;;2.70;1.15;;;;;;;32.33;39.48;98754.88;6245345;23;20137;-89
2023/06/15 09:10:41;;;;;;;2.72;1.10;;;;;;;32.65;41.29;98761.72;6244645;23;20247;-88
2023/06/15 09:13:15;;;;;;;3.13;1.50;;;;;;;32.61;38.21;98760.56;6245094;23;20144;-87
2023/06/15 09:15:43;;;;;;;2.92;1.05;;;;;;;32.44;37.83;98764.94;6219965;23;20604;-89
2023/06/15 09:18:10;;;;;;;2.90;1.50;;;;;;;32.55;38.28;98763.34;6246755;23;20150;-89
2023/06/15 09:20:40;;;;;;;2.35;1.20;;;;;;;32.78;37.11;98758.81;6245456;23;20224;-88
2023/06/15 09:23:13;;;;;;;1.98;1.13;;;;;;;32.63;37.59;98763.84;6245326;23;20592;-87
2023/06/15 09:25:54;;;;;;;1.73;0.90;;;;;;;32.76;36.35;98754.69;6245361;23;20197;-90
2023/06/15 09:28:27;;;;;;;3.40;1.30;;;;;;;32.90;35.86;98756.16;6246169;23;20150;-89
2023/06/15 09:30:59;;;;;;;2.35;0.90;;;;;;;32.62;36.69;98753.25;6219167;23;20181;-87
2023/06/15 09:33:30;;;;;;;2.28;1.23;;;;;;;32.71;36.61;98754.56;6246161;23;20133;-87
2023/06/15 09:36:04;;;;;;;2.72;1.35;;;;;;;32.69;37.49;98748.53;6246371;23;20162;-87
2023/06/15 09:38:40;;;;;;;2.70;1.20;;;;;;;32.71;38.63;98749.13;6245570;23;20140;-88
2023/06/15 09:41:09;;;;;;;2.53;1.00;;;;;;;32.69;37.11;98748.53;6246405;23;20190;-87
2023/06/15 09:43:40;;;;;;;3.05;1.40;;;;;;;32.72;36.45;98742.66;6241265;23;20164;-90
2023/06/15 09:46:18;;;;;;;2.67;1.48;;;;;;;32.97;38.54;98746.00;6244575;23;20172;-88
2023/06/15 09:48:44;;;;;;;5.35;1.58;;;;;;;33.16;36.21;98742.16;6245973;23;20319;-90
2023/06/15 09:51:10;;;;;;;1.77;0.90;;;;;;;33.19;37.20;98739.00;6245415;23;20571;-90
2023/06/15 09:53:39;;;;;;;3.83;1.38;;;;;;;33.21;37.17;98731.41;6245783;23;20535;-90
2023/06/15 09:56:14;;;;;;;3.50;1.35;;;;;;;32.42;37.78;98734.47;6245857;23;20155;-93
2023/06/15 09:58:40;;;;;;;3.50;1.23;;;;;;;32.52;37.78;98731.22;6246360;23;20140;-91
2023/06/15 10:01:09;;;;;;;1.95;1.10;;;;;;;32.54;38.58;98723.72;6242818;23;20505;-91
2023/06/15 10:03:36;;;;;;;2.55;1.17;;;;;;;32.20;38.84;98734.16;6245931;23;20144;-92
2023/06/15 10:06:15;;;;;;;1.90;1.20;;;;;;;32.42;39.31;98725.50;6245290;23;20228;-91
2023/06/15 10:08:45;;;;;;;2.25;1.10;;;;;;;32.22;38.31;98715.78;6244560;23;20130;-92
2023/06/15 10:11:13;;;;;;;2.58;1.15;;;;;;;32.15;37.47;98717.72;6220007;23;20187;-92
2023/06/15 10:13:44;;;;;;;2.10;1.20;;;;;;;32.08;37.34;98725.13;6246446;23;20180;-90
2023/06/15 10:16:20;;;;;;;2.85;1.02;;;;;;;31.98;36.17;98716.69;6218763;23;20145;-91
2023/06/15 10:18:49;;;;;;;2.28;1.02;;;;;;;32.01;37.64;98715.44;6246167;23;20155;-86
2023/06/15 10:21:20;;;;;;;4.15;1.40;;;;;;;32.22;38.51;98718.50;6245789;23;20141;-88
2023/06/15 10:23:54;;;;;;;2.45;1.00;;;;;;;32.22;36.79;98715.78;6244046;23;20137;-91
2023/06/15 10:26:20;;;;;;;2.08;1.10;;;;;;;32.12;38.29;98717.38;6243489;23;20632;-89
2023/06/15 10:29:12;;;;;;;2.45;1.20;;;;;;;32.28;39.04;98703.19;6244319;23;20895;-92
2023/06/15 10:31:52;;;;;;;2.28;1.10;;;;;;;32.01;38.85;98708.13;6243808;23;20220;-90
2023/06/15 10:34:48;;;;;;;2.08;1.10;;;;;;;32.12;40.13;98707.34;6244227;23;20635;-92
2023/06/15 10:37:41;;;;;;;2.42;1.10;;;;;;;32.13;40.92;98705.44;6245387;23;20148;-91
2023/06/15 10:40:21;;;;;;;6.53;1.40;;;;;;;32.19;39.61;98697.25;6220018;23;20141;-90
2023/06/15 10:42:48;;;;;;;2.03;1.13;;;;;;;32.34;38.79;98701.44;6219982;23;20141;-92
2023/06/15 10:45:26;;;;;;;5.00;1.15;;;;;;;32.47;38.44;98698.53;6246565;23;20160;-91
2023/06/15 10:47:52;;;;;;;4.07;1.10;;;;;;;32.61;37.54;98697.28;6246431;23;20599;-90
2023/06/15 10:50:17;;;;;;;1.95;1.35;;;;;;;32.59;39.27;98692.09;6246191;23;20177;-91
2023/06/15 10:52:43;;;;;;;2.65;1.23;;;;;;;32.18;37.90;98682.00;6246696;23;20228;-91
2023/06/15 10:55:09;;;;;;;3.33;1.00;;;;;;;32.28;39.37;98688.78;6220348;23;20159;-91
2023/06/15 10:57:35;;;;;;;3.50;1.30;;;;;;;32.31;39.40;98686.44;6246803;23;20553;-91
2023/06/15 11:00:04;;;;;;;2.15;1.10;;;;;;;32.09;39.21;98683.41;6246138;23;20145;-92
2023/06/15 11:02:31;;;;;;;2.90;1.13;;;;;;;32.31;39.91;98681.03;6246105;23;20187;-91
2023/06/15 11:05:01;;;;;;;2.00;1.10;;;;;;;32.13;37.69;98675.63;6219635;23;20161;-91
2023/06/15 11:07:28;;;;;;;2.42;1.13;;;;;;;32.39;38.13;98677.97;6246021;23;20585;-91
2023/06/15 11:09:57;;;;;;;2.15;1.02;;;;;;;31.88;35.77;98673.00;6245826;23;20259;-91
2023/06/15 11:12:36;;;;;;;2.78;1.08;;;;;;;32.10;37.20;98676.91;6246065;23;20161;-90
2023/06/15 11:15:04;;;;;;;4.00;1.10;;;;;;;32.30;37.36;98671.22;6246127;23;20585;-90
2023/06/15 11:17:33;;;;;;;4.50;1.25;;;;;;;32.37;37.11;98673.81;6246374;23;20156;-90
2023/06/15 11:19:58;;;;;;;3.28;1.02;;;;;;;32.60;37.59;98668.50;6246013;23;20169;-90
2023/06/15 11:22:26;;;;;;;3.13;1.38;;;;;;;32.76;36.70;98665.94;6244070;23;20146;-91
2023/06/15 11:24:55;;;;;;;2.28;1.00;;;;;;;32.57;36.37;98674.41;6246095;23;20227;-92
2023/06/15 11:27:22;;;;;;;2.33;1.05;;;;;;;32.57;37.01;98667.09;6218978;23;20273;-91
2023/06/15 11:29:56;;;;;;;2.22;1.20;;;;;;;32.69;36.75;98669.81;6218762;23;20185;-91
2023/06/15 11:32:28;;;;;;;2.55;1.20;;;;;;;32.74;35.94;98668.06;6244279;23;20134;-91
2023/06/15 11:35:00;;;;;;;3.67;1.08;;;;;;;32.50;38.23;98669.03;6245617;23;20236;-91
2023/06/15 18:16:26;;;;;;;8.15;1.85;;;;;;;29.67;47.15;98440.28;6168967;23;20304;-88